Time;durP1;ratioP1;P1;durP2;ratioP2;P2;SDS_P1;SDS_P2;PMS_P1;PMS_P2;Temp;Humidity;BMP_temperature;BMP_pressure;BME280_temperature;BME280_humidity;BME280_pressure;Samples;Min_cycle;Max_cycle;Signal;HPM_P1;HPM_P2
2021/12/06 00:02:15;;;;;;;35.10;19.33;;;;;;;5.78;100.00;93524.94;5032384;28;20248;-62
2021/12/06 00:04:40;;;;;;;32.37;18.47;;;;;;;5.76;100.00;93494.03;5032501;28;20242;-60
2021/12/06 00:07:14;;;;;;;34.80;20.67;;;;;;;6.10;100.00;93518.00;5032214;28;20292;-60
2021/12/06 00:09:39;;;;;;;35.03;19.57;;;;;;;5.86;100.00;93502.44;5032388;28;20638;-63
2021/12/06 00:12:05;;;;;;;35.60;18.63;;;;;;;5.78;100.00;93498.03;5032291;28;20195;-62
2021/12/06 00:14:34;;;;;;;33.20;18.10;;;;;;;6.01;100.00;93496.09;5030445;28;20189;-60
2021/12/06 00:17:05;;;;;;;30.53;18.10;;;;;;;6.08;100.00;93499.69;5032210;28;20252;-62
2021/12/06 00:19:32;;;;;;;31.27;17.57;;;;;;;5.89;100.00;93497.97;5031921;28;20243;-63
2021/12/06 00:22:00;;;;;;;36.60;19.43;;;;;;;5.77;100.00;93495.63;5031757;28;20205;-61
2021/12/06 00:24:26;;;;;;;38.17;19.10;;;;;;;6.02;100.00;93512.81;5031782;28;20584;-62
2021/12/06 00:26:52;;;;;;;36.20;19.67;;;;;;;6.08;100.00;93512.28;5031687;28;20231;-61
2021/12/06 00:29:24;;;;;;;31.43;18.37;;;;;;;6.04;100.00;93538.72;5030322;28;20193;-59
2021/12/06 00:31:51;;;;;;;32.03;18.40;;;;;;;6.03;100.00;93524.50;5031534;28;20263;-59
2021/12/06 00:34:25;;;;;;;35.00;20.10;;;;;;;6.34;100.00;93548.69;5030256;28;20193;-59
2021/12/06 00:37:05;;;;;;;30.57;18.67;;;;;;;6.30;100.00;93544.84;5031459;28;20503;-61
2021/12/06 00:39:33;;;;;;;30.93;18.13;;;;;;;6.04;100.00;93535.41;5031648;28;20700;-58
2021/12/06 00:41:59;;;;;;;33.10;17.80;;;;;;;6.23;100.00;93527.84;5030338;28;20201;-62
2021/12/06 00:44:24;;;;;;;33.90;18.70;;;;;;;6.31;100.00;93520.41;5030263;28;20735;-62
2021/12/06 00:46:51;;;;;;;29.73;16.33;;;;;;;6.48;100.00;93543.28;5031579;28;20205;-59
2021/12/06 00:49:17;;;;;;;27.23;17.00;;;;;;;6.21;100.00;93517.91;5031491;28;20261;-62
2021/12/06 00:51:42;;;;;;;27.03;15.27;;;;;;;6.27;100.00;93535.03;5030296;28;20634;-58
2021/12/06 00:54:10;;;;;;;33.00;16.93;;;;;;;6.16;100.00;93547.75;5031395;28;20185;-60
2021/12/06 00:56:37;;;;;;;28.10;15.07;;;;;;;6.22;100.00;93526.25;5031685;28;20292;-61
2021/12/06 00:59:03;;;;;;;26.67;14.33;;;;;;;6.30;100.00;93528.94;5031218;28;20251;-62
2021/12/06 01:01:29;;;;;;;24.90;14.07;;;;;;;6.05;100.00;93520.13;5030018;28;20359;-62
2021/12/06 01:03:54;;;;;;;24.80;13.63;;;;;;;6.24;100.00;93525.19;5031204;28;20263;-62
2021/12/06 01:06:20;;;;;;;23.93;14.83;;;;;;;6.10;100.00;93527.31;5030035;28;20220;-59
2021/12/06 01:08:45;;;;;;;30.50;14.60;;;;;;;5.82;100.00;93511.97;5031322;28;20196;-59
2021/12/06 01:11:11;;;;;;;25.47;13.67;;;;;;;5.84;100.00;93516.91;5031775;28;20267;-60
2021/12/06 01:13:38;;;;;;;26.87;14.30;;;;;;;6.07;100.00;93527.56;5031169;28;20275;-63
2021/12/06 01:16:04;;;;;;;26.97;13.83;;;;;;;6.04;100.00;93522.78;5031696;28;20268;-62
2021/12/06 01:18:30;;;;;;;29.13;14.30;;;;;;;5.88;100.00;93515.72;5031198;28;20640;-59
2021/12/06 01:23:41;;;;;;;24.00;13.30;;;;;;;6.48;100.00;93529.84;5031439;28;20249;-63
2021/12/06 01:26:27;;;;;;;24.67;13.00;;;;;;;6.11;100.00;93534.75;5032316;28;20209;-62
2021/12/06 01:39:17;;;;;;;40.53;21.77;;;;;;;5.87;100.00;93504.03;5035070;28;20232;-59
2021/12/06 01:41:56;;;;;;;38.70;22.50;;;;;;;5.86;100.00;93475.50;5034975;28;20197;-62
2021/12/06 01:44:34;;;;;;;38.60;22.63;;;;;;;5.74;100.00;93495.88;5035082;28;20567;-60
2021/12/06 01:47:08;;;;;;;44.33;24.33;;;;;;;5.79;100.00;93478.66;5035000;28;20193;-59
2021/12/06 01:49:38;;;;;;;39.93;25.30;;;;;;;5.85;100.00;93473.13;5034771;28;20607;-58
2021/12/06 01:52:20;;;;;;;41.50;24.37;;;;;;;5.63;100.00;93480.88;5034925;28;20196;-59
2021/12/06 01:54:46;;;;;;;37.13;22.60;;;;;;;5.54;100.00;93484.97;5035015;28;20191;-62
2021/12/06 01:57:12;;;;;;;35.37;21.47;;;;;;;5.36;100.00;93473.09;5034748;28;20199;-60
2021/12/06 01:59:39;;;;;;;33.70;19.40;;;;;;;5.34;100.00;93472.44;5034331;28;20220;-60
2021/12/06 02:02:05;;;;;;;27.93;17.43;;;;;;;5.35;100.00;93469.00;5034637;28;20298;-58
2021/12/06 02:04:32;;;;;;;31.30;18.73;;;;;;;5.55;100.00;93483.25;5034670;28;20261;-64
2021/12/06 02:06:58;;;;;;;28.30;17.93;;;;;;;5.72;100.00;93472.53;5034878;28;20262;-62
2021/12/06 02:09:26;;;;;;;32.90;18.73;;;;;;;5.81;100.00;93469.25;5034854;28;20201;-60
2021/12/06 02:11:54;;;;;;;29.30;17.10;;;;;;;6.10;100.00;93502.88;5034543;28;20262;-62
2021/12/06 02:14:29;;;;;;;26.50;16.17;;;;;;;5.70;100.00;93475.19;5033207;28;20191;-59
2021/12/06 02:17:15;;;;;;;27.27;16.10;;;;;;;5.77;100.00;93483.03;5034405;28;20194;-59
2021/12/06 02:19:49;;;;;;;29.60;16.53;;;;;;;5.95;100.00;93496.63;5034346;28;20589;-61
2021/12/06 02:22:20;;;;;;;30.27;16.87;;;;;;;5.85;100.00;93493.28;5034371;28;20205;-60
2021/12/06 02:24:45;;;;;;;28.57;16.43;;;;;;;5.98;100.00;93485.50;5034383;28;20531;-59
2021/12/06 02:27:13;;;;;;;24.77;15.17;;;;;;;6.12;100.00;93501.00;5034044;28;20590;-60
2021/12/06 02:29:40;;;;;;;25.47;15.83;;;;;;;5.91;100.00;93495.28;5034165;28;20186;-60
2021/12/06 02:32:10;;;;;;;27.50;15.27;;;;;;;5.76;100.00;93491.50;5034063;28;20498;-64
2021/12/06 02:34:40;;;;;;;29.87;16.03;;;;;;;5.91;100.00;93487.72;5034194;28;20200;-61
2021/12/06 02:37:09;;;;;;;26.50;15.43;;;;;;;6.28;100.00;93482.84;5033587;28;20208;-58
2021/12/06 02:39:36;;;;;;;26.87;15.83;;;;;;;6.20;100.00;93473.41;5032460;28;20279;-61
2021/12/06 02:42:03;;;;;;;29.40;16.17;;;;;;;6.29;100.00;93472.59;5032536;28;20694;-60
2021/12/06 02:44:29;;;;;;;26.57;15.40;;;;;;;6.45;100.00;93482.16;5032570;28;20192;-61
2021/12/06 02:46:55;;;;;;;24.53;14.10;;;;;;;6.65;100.00;93483.72;5034017;28;20525;-61
2021/12/06 02:49:23;;;;;;;30.67;14.87;;;;;;;6.55;100.00;93480.41;5033678;28;20262;-59
2021/12/06 02:51:50;;;;;;;25.77;14.63;;;;;;;6.54;100.00;93471.25;5033798;28;20336;-62
2021/12/06 02:54:19;;;;;;;29.10;15.43;;;;;;;6.13;100.00;93466.50;5032304;28;20196;-61
2021/12/06 02:59:37;;;;;;;27.40;15.70;;;;;;;6.23;100.00;93470.63;5017763;28;20240;-61
2021/12/06 03:02:07;;;;;;;26.83;15.30;;;;;;;6.23;100.00;93483.25;5015372;28;20208;-62
2021/12/06 03:04:33;;;;;;;26.57;15.67;;;;;;;5.91;100.00;93463.31;5033427;28;20186;-61
2021/12/06 03:07:00;;;;;;;26.80;15.37;;;;;;;5.50;100.00;93465.19;5033281;28;20201;-63
2021/12/06 03:09:28;;;;;;;25.60;14.77;;;;;;;5.65;100.00;93471.47;5033456;28;20202;-62
2021/12/06 03:11:57;;;;;;;29.03;16.43;;;;;;;5.50;100.00;93462.66;5031788;28;20220;-63
2021/12/06 03:14:32;;;;;;;28.77;14.67;;;;;;;5.80;100.00;93460.88;5033401;28;20216;-59
2021/12/06 03:17:01;;;;;;;29.60;15.43;;;;;;;6.00;100.00;93473.53;5033757;28;20199;-60
2021/12/06 03:19:27;;;;;;;25.73;13.73;;;;;;;5.94;100.00;93455.47;5033164;28;20377;-62
2021/12/06 03:21:53;;;;;;;24.10;14.30;;;;;;;5.66;100.00;93458.72;5033075;28;20277;-61
2021/12/06 03:24:19;;;;;;;25.47;14.37;;;;;;;5.83;100.00;93468.22;5033141;28;20196;-61
2021/12/06 03:26:46;;;;;;;31.60;16.53;;;;;;;5.77;100.00;93468.72;5033054;28;20206;-63
2021/12/06 03:29:12;;;;;;;28.87;16.13;;;;;;;5.88;100.00;93472.84;5031662;28;20278;-63
2021/12/06 03:31:37;;;;;;;29.40;16.30;;;;;;;6.18;100.00;93477.78;5032979;28;20228;-59
2021/12/06 03:34:05;;;;;;;25.57;14.93;;;;;;;6.47;100.00;93486.16;5033864;28;20212;-61
2021/12/06 03:36:33;;;;;;;25.67;14.77;;;;;;;6.40;100.00;93469.94;5032666;28;20579;-63
2021/12/06 03:39:06;;;;;;;22.87;13.93;;;;;;;6.14;100.00;93463.84;5032194;28;20217;-60
2021/12/06 03:41:31;;;;;;;26.43;15.40;;;;;;;6.36;100.00;93462.78;5033627;28;20288;-60
2021/12/06 03:43:59;;;;;;;22.80;13.93;;;;;;;6.58;100.00;93473.41;5032799;28;20263;-63
2021/12/06 03:46:27;;;;;;;26.13;14.47;;;;;;;6.65;100.00;93468.56;5032633;28;20292;-62
2021/12/06 03:48:52;;;;;;;26.57;13.77;;;;;;;6.95;100.00;93485.28;5031840;28;20196;-60
2021/12/06 03:51:18;;;;;;;24.13;13.83;;;;;;;6.87;100.00;93462.44;5032526;28;20209;-62
2021/12/06 03:53:45;;;;;;;22.33;13.47;;;;;;;7.05;100.00;93468.38;5031334;28;20185;-60
2021/12/06 03:56:12;;;;;;;25.27;13.90;;;;;;;6.89;100.00;93448.72;5032761;28;20213;-60
2021/12/06 03:58:38;;;;;;;21.87;12.17;;;;;;;7.00;100.00;93460.38;5030925;28;20679;-60
2021/12/06 04:01:04;;;;;;;25.53;14.00;;;;;;;7.09;100.00;93487.38;5032848;28;20619;-60
2021/12/06 04:03:31;;;;;;;25.47;13.40;;;;;;;6.83;100.00;93458.59;5032334;28;20627;-59
2021/12/06 04:05:57;;;;;;;24.13;13.30;;;;;;;6.78;100.00;93454.75;5032747;28;20189;-62
2021/12/06 04:08:25;;;;;;;23.93;13.10;;;;;;;6.85;100.00;93454.19;5032093;28;20236;-60
2021/12/06 04:10:51;;;;;;;21.03;12.37;;;;;;;6.83;100.00;93454.31;5032737;28;20663;-62
2021/12/06 04:13:17;;;;;;;22.00;13.07;;;;;;;7.17;100.00;93469.78;5032380;28;20230;-62
2021/12/06 04:15:44;;;;;;;21.67;13.03;;;;;;;7.28;100.00;93472.91;5032618;28;20343;-62
2021/12/06 04:18:10;;;;;;;19.87;12.33;;;;;;;7.24;100.00;93475.84;5030617;28;20206;-60
2021/12/06 04:20:37;;;;;;;21.50;12.10;;;;;;;7.01;100.00;93459.47;5032482;28;20235;-63
2021/12/06 04:23:06;;;;;;;22.57;12.03;;;;;;;7.08;100.00;93450.38;5032065;28;20232;-60
2021/12/06 04:25:33;;;;;;;20.17;12.30;;;;;;;7.12;100.00;93446.66;5032393;28;20236;-62
2021/12/06 04:28:04;;;;;;;23.87;13.27;;;;;;;7.08;100.00;93446.13;5030530;28;20209;-61
2021/12/06 04:30:30;;;;;;;20.73;11.97;;;;;;;7.35;100.00;93470.63;5031917;28;20193;-63
2021/12/06 04:32:56;;;;;;;16.63;10.77;;;;;;;7.28;100.00;93446.84;5031834;28;20194;-62
2021/12/06 04:35:23;;;;;;;22.63;12.17;;;;;;;7.40;100.00;93476.06;5032119;28;20197;-61
2021/12/06 04:37:48;;;;;;;25.50;12.40;;;;;;;7.09;100.00;93459.56;5031945;28;20201;-59
2021/12/06 04:40:14;;;;;;;21.33;11.90;;;;;;;7.04;100.00;93465.03;5031930;28;20221;-59
2021/12/06 04:42:40;;;;;;;24.13;12.53;;;;;;;7.16;100.00;93476.56;5031697;28;20198;-59
2021/12/06 04:45:07;;;;;;;23.10;11.80;;;;;;;7.32;100.00;93473.44;5031926;28;20196;-60
2021/12/06 04:47:33;;;;;;;22.00;13.10;;;;;;;7.07;100.00;93449.59;5031360;28;20206;-59
2021/12/06 04:49:58;;;;;;;21.43;12.40;;;;;;;6.92;100.00;93457.75;5031761;28;20255;-59
2021/12/06 04:52:25;;;;;;;22.60;11.70;;;;;;;7.00;100.00;93450.28;5031598;28;20197;-62
2021/12/06 04:54:57;;;;;;;23.30;11.83;;;;;;;7.27;100.00;93470.53;5013778;28;20251;-62
2021/12/06 04:57:34;;;;;;;22.40;12.37;;;;;;;7.37;100.00;93476.34;5031562;28;20718;-62
2021/12/06 05:00:21;;;;;;;22.17;11.83;;;;;;;7.33;100.00;93475.03;5030694;28;20212;-62
2021/12/06 05:02:47;;;;;;;19.13;11.97;;;;;;;7.35;100.00;93470.63;5031406;28;20623;-59
2021/12/06 05:05:36;;;;;;;21.83;12.80;;;;;;;7.51;100.00;93479.19;5032082;28;20212;-59
2021/12/06 05:08:16;;;;;;;21.60;12.90;;;;;;;7.43;100.00;93468.22;5031608;28;20698;-60
2021/12/06 05:10:42;;;;;;;18.30;11.87;;;;;;;7.49;100.00;93473.47;5032086;28;20552;-61
2021/12/06 05:13:07;;;;;;;21.63;12.70;;;;;;;7.60;100.00;93492.72;5031269;28;20233;-60
2021/12/06 05:15:33;;;;;;;27.43;16.30;;;;;;;7.57;100.00;93495.56;5031474;28;20206;-60
2021/12/06 05:17:59;;;;;;;26.07;14.17;;;;;;;7.32;100.00;93468.38;5031211;28;20197;-62
2021/12/06 05:20:25;;;;;;;24.03;12.60;;;;;;;7.18;100.00;93487.31;5029835;28;20217;-61
2021/12/06 05:22:50;;;;;;;24.33;13.83;;;;;;;7.49;100.00;93501.28;5031144;28;20204;-60
2021/12/06 05:25:17;;;;;;;22.37;13.87;;;;;;;7.38;100.00;93498.16;5031764;28;20644;-60
2021/12/06 05:27:43;;;;;;;22.80;14.40;;;;;;;7.46;100.00;93493.19;5031357;28;20693;-63
2021/12/06 05:30:11;;;;;;;23.67;14.17;;;;;;;7.30;100.00;93487.94;5031497;28;20644;-62
2021/12/06 05:32:37;;;;;;;24.67;14.07;;;;;;;7.28;100.00;93502.44;5023704;23;20284;-63
2021/12/06 05:35:09;;;;;;;25.07;14.23;;;;;;;7.20;100.00;93495.56;5010100;28;20183;-62
2021/12/06 05:37:41;;;;;;;31.80;15.37;;;;;;;7.34;100.00;93484.19;5011874;28;20213;-63
2021/12/06 05:40:11;;;;;;;20.33;12.57;;;;;;;7.37;100.00;93483.94;5011343;28;20218;-64
2021/12/06 05:42:36;;;;;;;25.37;14.73;;;;;;;7.18;100.00;93471.34;5011804;28;20230;-60
2021/12/06 05:45:04;;;;;;;23.23;14.33;;;;;;;7.00;100.00;93455.34;5011117;28;20225;-60
2021/12/06 05:47:30;;;;;;;25.73;14.80;;;;;;;6.91;100.00;93459.47;5011054;28;20213;-61
2021/12/06 05:49:55;;;;;;;24.20;12.73;;;;;;;6.80;100.00;93457.13;5011316;28;20700;-60
2021/12/06 05:52:21;;;;;;;25.50;14.97;;;;;;;7.24;100.00;93466.56;5011567;28;20213;-62
2021/12/06 05:54:47;;;;;;;27.03;14.23;;;;;;;7.29;100.00;93468.66;5011270;28;20328;-61
2021/12/06 05:57:12;;;;;;;21.57;13.33;;;;;;;7.11;100.00;93472.88;5011445;28;20210;-62
2021/12/06 05:59:39;;;;;;;18.13;12.97;;;;;;;7.01;100.00;93464.53;5011190;28;20685;-63
2021/12/06 06:02:06;;;;;;;24.37;14.13;;;;;;;7.03;100.00;93473.53;5011271;28;20229;-64
2021/12/06 06:04:33;;;;;;;23.77;13.27;;;;;;;6.90;100.00;93477.31;5011285;28;20209;-64
2021/12/06 06:06:58;;;;;;;20.97;12.20;;;;;;;7.08;100.00;93485.75;5011429;28;20699;-63
2021/12/06 06:09:24;;;;;;;20.17;11.70;;;;;;;7.17;100.00;93488.25;5011360;28;20225;-63
2021/12/06 06:11:50;;;;;;;25.10;13.27;;;;;;;7.38;100.00;93505.72;5011143;28;20238;-61
2021/12/06 06:14:15;;;;;;;21.27;12.10;;;;;;;7.18;100.00;93486.53;5014220;28;20584;-60
2021/12/06 06:16:52;;;;;;;20.00;11.50;;;;;;;7.14;100.00;93486.00;5014030;28;20222;-60
2021/12/06 06:19:24;;;;;;;21.07;11.87;;;;;;;6.80;100.00;93459.66;5014464;28;20233;-59
2021/12/06 06:21:50;;;;;;;20.43;12.27;;;;;;;6.93;100.00;93451.78;5014088;28;20633;-63
2021/12/06 06:24:16;;;;;;;18.03;10.70;;;;;;;7.08;100.00;93468.06;5012943;28;20183;-60
2021/12/06 06:26:41;;;;;;;18.13;10.73;;;;;;;7.35;100.00;93481.53;5014774;28;20210;-64
2021/12/06 06:29:09;;;;;;;20.50;10.80;;;;;;;7.76;100.00;93513.13;5014652;28;20214;-62
2021/12/06 06:31:34;;;;;;;18.53;11.20;;;;;;;7.80;100.00;93513.69;5014182;28;20220;-63
2021/12/06 06:34:00;;;;;;;18.10;11.33;;;;;;;7.72;100.00;93505.97;5013960;28;20246;-62
2021/12/06 06:36:25;;;;;;;16.03;10.70;;;;;;;7.55;100.00;93505.78;5014167;28;20687;-63
2021/12/06 06:38:50;;;;;;;20.33;11.60;;;;;;;7.41;100.00;93516.34;5014000;28;20205;-63
2021/12/06 06:41:16;;;;;;;16.73;10.40;;;;;;;7.44;100.00;93518.63;5014022;28;20209;-63
2021/12/06 06:43:41;;;;;;;25.37;11.70;;;;;;;7.69;100.00;93518.91;4996561;28;20190;-62
2021/12/06 06:46:07;;;;;;;20.07;11.30;;;;;;;8.03;100.00;93532.56;5012870;28;20300;-62
2021/12/06 06:48:33;;;;;;;17.77;10.53;;;;;;;8.04;100.00;93529.13;5014013;28;20178;-59
2021/12/06 06:50:59;;;;;;;19.30;10.87;;;;;;;8.03;100.00;93505.53;5013951;28;20281;-60
2021/12/06 06:53:26;;;;;;;15.57;9.93;;;;;;;8.29;100.00;93516.59;5014324;28;20191;-64
2021/12/06 06:55:52;;;;;;;15.30;10.13;;;;;;;8.28;100.00;93521.78;5013669;28;20175;-63
2021/12/06 06:58:18;;;;;;;13.23;9.23;;;;;;;8.14;100.00;93523.03;5013943;28;20193;-63
2021/12/06 07:00:43;;;;;;;9.77;7.77;;;;;;;8.14;100.00;93528.09;5013706;28;20167;-63
2021/12/06 07:03:09;;;;;;;13.03;8.20;;;;;;;8.22;100.00;93540.84;5013550;28;20218;-64
2021/12/06 07:05:36;;;;;;;13.97;9.27;;;;;;;8.35;100.00;93538.00;5012374;28;20194;-63
2021/12/06 07:08:01;;;;;;;15.27;8.97;;;;;;;8.42;100.00;93531.44;5014051;28;20275;-63
2021/12/06 07:10:27;;;;;;;13.07;8.93;;;;;;;8.60;100.00;93532.22;5013755;28;20618;-62
2021/12/06 07:12:54;;;;;;;14.37;8.20;;;;;;;8.60;100.00;93528.88;5014224;28;20212;-64
2021/12/06 07:15:23;;;;;;;13.27;8.60;;;;;;;8.57;100.00;93517.28;5012383;28;20254;-60
2021/12/06 07:17:51;;;;;;;12.97;8.40;;;;;;;8.71;100.00;93521.84;5012170;28;20210;-60
2021/12/06 07:20:17;;;;;;;14.63;8.57;;;;;;;8.83;100.00;93515.59;5013522;28;20203;-63
2021/12/06 07:22:44;;;;;;;11.77;7.70;;;;;;;9.05;100.00;93545.53;5013813;28;20207;-62
2021/12/06 07:25:11;;;;;;;12.13;7.93;;;;;;;9.05;100.00;93537.16;5012238;28;20198;-61
2021/12/06 07:27:37;;;;;;;12.50;8.13;;;;;;;8.84;100.00;93502.00;5032348;23;20696;-63
2021/12/06 07:30:04;;;;;;;10.43;7.27;;;;;;;8.95;100.00;93521.22;5032614;28;20182;-62
2021/12/06 07:32:29;;;;;;;10.40;7.37;;;;;;;8.95;100.00;93523.75;5047009;28;20211;-61
2021/12/06 07:34:55;;;;;;;11.20;6.97;;;;;;;8.76;100.00;93509.53;5052793;28;20173;-63
2021/12/06 07:37:21;;;;;;;10.50;6.90;;;;;;;8.81;100.00;93521.75;5053141;28;20221;-62
2021/12/06 07:39:47;;;;;;;10.73;7.10;;;;;;;8.92;100.00;93529.94;5052744;28;20201;-63
2021/12/06 07:42:12;;;;;;;13.90;7.03;;;;;;;8.96;100.00;93521.09;5052938;28;20198;-62
2021/12/06 07:44:42;;;;;;;9.67;6.77;;;;;;;8.87;100.00;93521.16;5052512;28;20174;-63
2021/12/06 07:47:10;;;;;;;8.53;6.33;;;;;;;8.98;100.00;93546.28;5034374;28;20624;-61
2021/12/06 07:49:37;;;;;;;16.57;11.37;;;;;;;8.86;100.00;93482.38;5051314;28;20181;-63
2021/12/06 07:52:04;;;;;;;9.20;6.10;;;;;;;8.84;100.00;93503.72;5052254;28;20282;-62
2021/12/06 07:54:30;;;;;;;8.83;6.20;;;;;;;9.08;100.00;93541.91;5052415;28;20178;-62
2021/12/06 07:56:56;;;;;;;9.83;6.57;;;;;;;8.99;100.00;93525.84;5052884;28;20255;-62
2021/12/06 07:59:21;;;;;;;10.80;6.53;;;;;;;9.07;100.00;93541.09;5052229;28;20699;-62
2021/12/06 08:01:47;;;;;;;11.47;6.07;;;;;;;8.86;100.00;93504.38;5052558;28;20683;-62
2021/12/06 08:04:13;;;;;;;12.50;6.60;;;;;;;8.87;100.00;93496.63;5052159;28;20177;-61
2021/12/06 08:06:38;;;;;;;11.07;6.93;;;;;;;8.95;100.00;93518.69;5050881;28;20197;-62
2021/12/06 08:09:05;;;;;;;11.33;6.30;;;;;;;8.86;100.00;93504.38;5052079;28;20177;-61
2021/12/06 08:11:30;;;;;;;9.30;6.57;;;;;;;8.67;100.00;93492.69;5052060;28;20285;-62
2021/12/06 08:13:56;;;;;;;10.97;7.03;;;;;;;8.73;100.00;93509.81;5052013;28;20311;-62
2021/12/06 08:16:29;;;;;;;13.13;6.93;;;;;;;8.91;100.00;93508.06;5052171;28;20675;-62
2021/12/06 08:18:56;;;;;;;9.77;6.27;;;;;;;8.92;100.00;93508.84;5051866;28;20185;-63
2021/12/06 08:21:22;;;;;;;8.93;6.30;;;;;;;8.78;100.00;93494.19;5052056;28;20276;-62
2021/12/06 08:23:50;;;;;;;9.20;5.33;;;;;;;8.97;100.00;93524.41;5052099;28;20265;-61
2021/12/06 08:26:17;;;;;;;8.20;5.47;;;;;;;8.89;100.00;93514.19;5050403;28;20217;-62
2021/12/06 08:28:45;;;;;;;9.47;5.67;;;;;;;8.87;100.00;93505.94;5052013;28;20677;-62
2021/12/06 08:31:12;;;;;;;7.83;5.73;;;;;;;8.99;100.00;93497.97;5051739;28;20284;-63
2021/12/06 08:33:39;;;;;;;7.23;5.40;;;;;;;9.23;100.00;93494.81;5050327;28;20228;-62
2021/12/06 08:36:07;;;;;;;7.10;5.03;;;;;;;9.18;100.00;93492.72;5051685;23;20708;-62
2021/12/06 08:38:34;;;;;;;9.97;5.77;;;;;;;9.26;100.00;93507.16;5031767;28;20257;-63
2021/12/06 08:41:03;;;;;;;6.93;5.27;;;;;;;9.26;100.00;93507.16;5031540;28;20190;-65
2021/12/06 08:43:29;;;;;;;7.67;5.43;;;;;;;9.18;100.00;93489.38;5031586;28;20179;-62
2021/12/06 08:45:57;;;;;;;8.37;5.20;;;;;;;9.16;100.00;93481.13;5031885;28;20190;-65
2021/12/06 08:48:25;;;;;;;8.07;5.23;;;;;;;9.36;100.00;93501.97;5031406;28;20182;-62
2021/12/06 08:50:53;;;;;;;6.93;4.73;;;;;;;9.55;100.00;93522.06;5030268;28;20192;-60
2021/12/06 08:53:18;;;;;;;10.37;5.60;;;;;;;9.42;100.00;93492.03;5030047;28;20187;-63
2021/12/06 08:55:44;;;;;;;8.93;5.50;;;;;;;9.59;100.00;93498.78;5030359;28;20240;-61
2021/12/06 08:58:09;;;;;;;7.77;5.23;;;;;;;9.75;100.00;93515.81;5031365;28;20273;-62
2021/12/06 09:00:37;;;;;;;6.30;4.67;;;;;;;9.51;100.00;93520.78;5031280;28;20246;-61
2021/12/06 09:03:03;;;;;;;6.93;4.20;;;;;;;9.51;100.00;93506.34;5031380;28;20197;-62
2021/12/06 09:05:34;;;;;;;7.03;4.43;;;;;;;9.60;100.00;93524.91;5031584;28;20265;-62
2021/12/06 09:08:00;;;;;;;7.97;4.07;;;;;;;9.71;100.00;93547.50;5031779;28;20577;-63
2021/12/06 09:10:25;;;;;;;5.93;4.00;;;;;;;9.82;100.00;93537.06;5031562;28;20201;-61
2021/12/06 09:12:52;;;;;;;6.50;4.67;;;;;;;9.82;100.00;93525.19;5031399;28;20194;-60
2021/12/06 09:15:19;;;;;;;7.27;5.30;;;;;;;9.87;100.00;93522.19;5031423;28;20186;-61
2021/12/06 09:17:46;;;;;;;5.67;4.23;;;;;;;10.14;100.00;93542.28;5031597;28;20205;-60
2021/12/06 09:20:13;;;;;;;7.93;4.73;;;;;;;10.17;100.00;93515.78;5031305;28;20595;-61
2021/12/06 09:22:40;;;;;;;7.63;4.23;;;;;;;10.21;100.00;93532.31;5031283;28;20202;-61
2021/12/06 09:25:08;;;;;;;8.73;5.73;;;;;;;10.03;100.00;93504.47;5031184;28;20185;-63
2021/12/06 09:27:34;;;;;;;6.23;5.27;;;;;;;10.30;100.00;93518.69;5031520;28;20684;-60
2021/12/06 09:29:59;;;;;;;7.90;4.83;;;;;;;10.21;100.00;93519.63;5031072;28;20190;-63
2021/12/06 09:32:25;;;;;;;7.23;5.23;;;;;;;10.05;100.00;93490.69;5031008;28;20190;-59
2021/12/06 09:34:56;;;;;;;6.27;4.37;;;;;;;9.63;100.00;93469.63;5031220;28;20174;-63
2021/12/06 09:37:22;;;;;;;9.83;5.30;;;;;;;9.13;100.00;93444.19;5030102;28;20214;-63
2021/12/06 09:39:47;;;;;;;7.73;5.33;;;;;;;9.35;100.00;93460.63;5030926;28;20202;-63
2021/12/06 09:42:13;;;;;;;6.70;4.63;;;;;;;9.39;100.00;93461.13;5030941;28;20578;-62
2021/12/06 09:44:39;;;;;;;8.33;5.07;;;;;;;9.70;100.00;93487.53;5031236;28;20182;-64
2021/12/06 09:47:04;;;;;;;5.93;4.37;;;;;;;9.67;100.00;93498.81;5032035;28;20586;-62
2021/12/06 09:49:30;;;;;;;7.23;4.93;;;;;;;9.81;100.00;93508.38;5034888;28;20232;-63
2021/12/06 09:52:01;;;;;;;7.87;5.30;;;;;;;10.14;100.00;93527.06;5035109;28;20216;-63
2021/12/06 09:54:33;;;;;;;7.73;4.77;;;;;;;10.12;100.00;93504.34;5033528;28;20232;-59
2021/12/06 09:57:01;;;;;;;9.17;5.07;;;;;;;9.79;100.00;93472.22;5033607;28;20214;-61
2021/12/06 09:59:28;;;;;;;7.90;4.80;;;;;;;10.08;100.00;93466.69;5035020;28;20237;-62
2021/12/06 10:02:00;;;;;;;8.73;5.53;;;;;;;10.42;100.00;93512.38;5034737;28;20680;-60
2021/12/06 10:04:28;;;;;;;8.13;4.93;;;;;;;10.43;100.00;93503.78;5034707;28;20338;-63
2021/12/06 10:06:55;;;;;;;8.13;4.77;;;;;;;10.45;100.00;93476.47;5035263;28;20721;-60
2021/12/06 10:09:21;;;;;;;9.07;5.83;;;;;;;10.17;100.00;93465.00;5033329;28;20193;-61
2021/12/06 10:11:48;;;;;;;8.23;4.83;;;;;;;9.96;100.00;93445.09;5034885;28;20205;-62
2021/12/06 10:14:15;;;;;;;9.83;5.57;;;;;;;9.82;100.00;93438.09;5034530;28;20194;-60
2021/12/06 10:16:41;;;;;;;8.23;5.20;;;;;;;9.79;100.00;93395.28;5034436;28;20202;-61
2021/12/06 10:19:07;;;;;;;9.80;5.70;;;;;;;10.14;100.00;93412.78;5034666;28;20216;-62
2021/12/06 10:21:35;;;;;;;8.70;6.03;;;;;;;10.50;100.00;93434.41;5034221;28;20202;-61
2021/12/06 10:24:01;;;;;;;8.30;5.80;;;;;;;10.39;100.00;93414.41;5034215;28;20563;-64
2021/12/06 10:26:30;;;;;;;8.93;5.80;;;;;;;10.51;100.00;93423.28;5034075;28;20293;-64
2021/12/06 10:29:03;;;;;;;10.20;6.17;;;;;;;10.75;100.00;93432.63;5034301;28;20178;-61
2021/12/06 10:31:32;;;;;;;9.00;6.10;;;;;;;10.77;100.00;93428.97;5034461;28;20212;-60
2021/12/06 10:33:58;;;;;;;8.80;6.17;;;;;;;10.80;100.00;93403.25;5032848;28;20300;-63
2021/12/06 10:36:25;;;;;;;11.03;5.70;;;;;;;10.96;100.00;93443.09;5034197;28;20325;-63
2021/12/06 10:38:54;;;;;;;10.30;6.03;;;;;;;10.80;100.00;93400.72;5033879;28;20517;-64
2021/12/06 10:41:25;;;;;;;8.43;5.30;;;;;;;10.94;100.00;93406.88;5033990;28;20214;-63
2021/12/06 10:43:58;;;;;;;8.00;5.37;;;;;;;11.10;100.00;93436.53;5032917;28;20185;-64
2021/12/06 10:46:26;;;;;;;9.57;5.50;;;;;;;11.03;100.00;93410.19;5034485;28;20289;-60
2021/12/06 10:48:55;;;;;;;10.23;6.13;;;;;;;10.99;100.00;93384.28;5034095;28;20175;-63
2021/12/06 10:51:23;;;;;;;12.07;6.63;;;;;;;11.02;100.00;93389.03;5034179;28;20276;-63
2021/12/06 10:54:05;;;;;;;10.00;6.13;;;;;;;11.02;100.00;93373.00;5032297;28;20714;-62
2021/12/06 10:56:46;;;;;;;12.73;7.30;;;;;;;10.82;100.00;93386.09;5034068;28;20521;-60
2021/12/06 10:59:17;;;;;;;10.93;6.00;;;;;;;10.90;100.00;93395.44;5033753;28;20312;-64
2021/12/06 11:01:44;;;;;;;10.97;6.53;;;;;;;10.87;100.00;93395.75;5034356;28;20214;-61
2021/12/06 11:04:12;;;;;;;9.03;6.43;;;;;;;10.82;100.00;93405.63;5033734;28;20655;-60
2021/12/06 11:06:43;;;;;;;7.90;6.50;;;;;;;10.82;100.00;93414.06;5033986;28;20293;-63
2021/12/06 11:09:16;;;;;;;9.70;6.67;;;;;;;10.67;100.00;93397.06;5033449;28;20162;-62
2021/12/06 11:11:51;;;;;;;10.10;7.03;;;;;;;10.61;100.00;93405.31;5033984;28;20211;-64
2021/12/06 11:14:30;;;;;;;14.60;7.57;;;;;;;10.24;100.00;93375.34;5033198;28;20175;-62
2021/12/06 11:17:00;;;;;;;11.50;8.03;;;;;;;9.90;100.00;93341.66;5033328;28;20210;-65
2021/12/06 11:19:28;;;;;;;11.77;7.40;;;;;;;10.30;100.00;93376.47;5033249;28;20255;-61
2021/12/06 11:21:55;;;;;;;11.73;7.80;;;;;;;10.20;100.00;93352.97;5031543;28;20206;-62
2021/12/06 11:24:25;;;;;;;12.70;7.40;;;;;;;9.92;100.00;93348.19;5032753;28;20714;-60
2021/12/06 11:27:13;;;;;;;11.97;6.70;;;;;;;10.00;100.00;93371.03;5033512;28;20668;-64
2021/12/06 11:29:48;;;;;;;11.23;7.80;;;;;;;9.69;100.00;93337.06;5032950;28;20174;-65
2021/12/06 11:32:31;;;;;;;12.20;7.57;;;;;;;9.94;100.00;93351.34;5031433;28;20209;-60
2021/12/06 11:35:16;;;;;;;11.87;7.50;;;;;;;9.97;100.00;93355.31;5031724;28;20236;-60
2021/12/06 11:38:04;;;;;;;15.33;8.27;;;;;;;9.76;100.00;93340.56;5033393;28;20205;-62
2021/12/06 11:40:33;;;;;;;13.50;7.23;;;;;;;9.98;100.00;93357.69;5032629;28;20238;-62
2021/12/06 11:43:06;;;;;;;10.97;7.27;;;;;;;9.89;100.00;93366.28;5032960;28;20271;-63